sensor_id;sensor_type;location;lat;lon;timestamp;P1;durP1;ratioP1;P2;durP2;ratioP2
70832;SDS011;71099;59.528;17.886;2024-01-30T00:00:59;32.83;;;12.05;;
70832;SDS011;71099;59.528;17.886;2024-01-30T00:03:25;19.67;;;8.35;;
70832;SDS011;71099;59.528;17.886;2024-01-30T00:05:50;22.25;;;8.63;;
70832;SDS011;71099;59.528;17.886;2024-01-30T00:08:16;40.92;;;13.00;;
70832;SDS011;71099;59.528;17.886;2024-01-30T00:10:41;23.60;;;9.57;;
70832;SDS011;71099;59.528;17.886;2024-01-30T00:13:07;25.88;;;9.23;;
70832;SDS011;71099;59.528;17.886;2024-01-30T00:15:32;27.63;;;10.80;;
70832;SDS011;71099;59.528;17.886;2024-01-30T00:17:57;26.27;;;10.40;;
70832;SDS011;71099;59.528;17.886;2024-01-30T00:20:23;21.88;;;10.13;;
70832;SDS011;71099;59.528;17.886;2024-01-30T00:22:48;17.75;;;9.25;;
70832;SDS011;71099;59.528;17.886;2024-01-30T00:25:14;28.60;;;11.02;;
70832;SDS011;71099;59.528;17.886;2024-01-30T00:27:39;20.92;;;9.40;;
70832;SDS011;71099;59.528;17.886;2024-01-30T00:30:05;28.85;;;10.70;;
70832;SDS011;71099;59.528;17.886;2024-01-30T00:32:31;26.35;;;10.75;;
70832;SDS011;71099;59.528;17.886;2024-01-30T00:34:57;18.75;;;9.45;;
70832;SDS011;71099;59.528;17.886;2024-01-30T00:37:22;22.98;;;9.45;;
70832;SDS011;71099;59.528;17.886;2024-01-30T00:39:48;23.13;;;10.30;;
70832;SDS011;71099;59.528;17.886;2024-01-30T00:42:14;22.48;;;10.23;;
70832;SDS011;71099;59.528;17.886;2024-01-30T00:44:40;33.38;;;9.65;;
70832;SDS011;71099;59.528;17.886;2024-01-30T00:47:05;21.63;;;8.95;;
70832;SDS011;71099;59.528;17.886;2024-01-30T00:49:31;21.65;;;10.55;;
70832;SDS011;71099;59.528;17.886;2024-01-30T00:51:56;20.98;;;10.50;;
70832;SDS011;71099;59.528;17.886;2024-01-30T00:54:22;31.48;;;10.85;;
70832;SDS011;71099;59.528;17.886;2024-01-30T00:56:47;20.50;;;9.82;;
70832;SDS011;71099;59.528;17.886;2024-01-30T00:59:13;34.42;;;9.95;;
70832;SDS011;71099;59.528;17.886;2024-01-30T01:01:38;25.88;;;9.85;;
70832;SDS011;71099;59.528;17.886;2024-01-30T01:04:03;35.17;;;12.18;;
70832;SDS011;71099;59.528;17.886;2024-01-30T01:06:29;28.50;;;10.35;;
70832;SDS011;71099;59.528;17.886;2024-01-30T01:08:54;21.83;;;10.73;;
70832;SDS011;71099;59.528;17.886;2024-01-30T01:11:20;23.55;;;10.85;;
70832;SDS011;71099;59.528;17.886;2024-01-30T01:13:45;34.63;;;13.63;;
70832;SDS011;71099;59.528;17.886;2024-01-30T01:16:10;27.98;;;11.82;;
70832;SDS011;71099;59.528;17.886;2024-01-30T01:18:36;27.15;;;11.48;;
70832;SDS011;71099;59.528;17.886;2024-01-30T01:21:01;28.15;;;11.40;;
70832;SDS011;71099;59.528;17.886;2024-01-30T01:23:27;30.98;;;12.25;;
70832;SDS011;71099;59.528;17.886;2024-01-30T01:25:52;20.85;;;10.02;;
70832;SDS011;71099;59.528;17.886;2024-01-30T01:28:18;22.15;;;10.90;;
70832;SDS011;71099;59.528;17.886;2024-01-30T01:30:43;17.17;;;10.15;;
70832;SDS011;71099;59.528;17.886;2024-01-30T01:33:09;14.05;;;7.93;;
70832;SDS011;71099;59.528;17.886;2024-01-30T01:35:35;18.58;;;9.25;;
70832;SDS011;71099;59.528;17.886;2024-01-30T01:38:00;14.95;;;8.70;;
70832;SDS011;71099;59.528;17.886;2024-01-30T01:40:26;16.75;;;7.85;;
70832;SDS011;71099;59.528;17.886;2024-01-30T01:42:53;12.13;;;8.13;;
70832;SDS011;71099;59.528;17.886;2024-01-30T01:45:19;15.07;;;7.75;;
70832;SDS011;71099;59.528;17.886;2024-01-30T01:47:47;14.82;;;7.85;;
70832;SDS011;71099;59.528;17.886;2024-01-30T01:50:15;14.32;;;7.88;;
70832;SDS011;71099;59.528;17.886;2024-01-30T01:52:44;17.27;;;8.95;;
70832;SDS011;71099;59.528;17.886;2024-01-30T01:55:12;16.17;;;9.45;;
70832;SDS011;71099;59.528;17.886;2024-01-30T01:57:38;20.55;;;8.40;;
70832;SDS011;71099;59.528;17.886;2024-01-30T02:00:04;18.67;;;8.27;;
70832;SDS011;71099;59.528;17.886;2024-01-30T02:02:30;13.68;;;7.93;;
70832;SDS011;71099;59.528;17.886;2024-01-30T02:05:00;28.48;;;8.75;;
70832;SDS011;71099;59.528;17.886;2024-01-30T02:07:26;14.25;;;7.72;;
70832;SDS011;71099;59.528;17.886;2024-01-30T02:09:53;13.30;;;7.85;;
70832;SDS011;71099;59.528;17.886;2024-01-30T02:12:18;17.25;;;8.23;;
70832;SDS011;71099;59.528;17.886;2024-01-30T02:14:47;14.02;;;7.75;;
70832;SDS011;71099;59.528;17.886;2024-01-30T02:17:13;15.77;;;8.90;;
70832;SDS011;71099;59.528;17.886;2024-01-30T02:19:40;15.45;;;8.73;;
70832;SDS011;71099;59.528;17.886;2024-01-30T02:22:06;15.10;;;8.55;;
70832;SDS011;71099;59.528;17.886;2024-01-30T02:24:32;18.42;;;9.07;;
70832;SDS011;71099;59.528;17.886;2024-01-30T02:26:58;14.65;;;8.48;;
70832;SDS011;71099;59.528;17.886;2024-01-30T02:29:24;20.38;;;9.43;;
70832;SDS011;71099;59.528;17.886;2024-01-30T02:31:49;17.08;;;9.57;;
70832;SDS011;71099;59.528;17.886;2024-01-30T02:34:15;15.20;;;8.35;;
70832;SDS011;71099;59.528;17.886;2024-01-30T02:36:43;14.68;;;7.90;;
70832;SDS011;71099;59.528;17.886;2024-01-30T02:39:09;14.48;;;8.00;;
70832;SDS011;71099;59.528;17.886;2024-01-30T02:41:34;18.10;;;9.25;;
70832;SDS011;71099;59.528;17.886;2024-01-30T02:44:00;30.85;;;9.43;;
70832;SDS011;71099;59.528;17.886;2024-01-30T02:46:26;51.22;;;10.27;;
70832;SDS011;71099;59.528;17.886;2024-01-30T02:48:52;43.17;;;8.82;;
70832;SDS011;71099;59.528;17.886;2024-01-30T02:51:17;23.25;;;7.70;;
70832;SDS011;71099;59.528;17.886;2024-01-30T02:53:42;36.97;;;8.95;;
70832;SDS011;71099;59.528;17.886;2024-01-30T02:56:08;19.85;;;8.60;;
70832;SDS011;71099;59.528;17.886;2024-01-30T02:58:35;12.95;;;7.90;;
70832;SDS011;71099;59.528;17.886;2024-01-30T03:01:04;14.75;;;6.93;;
70832;SDS011;71099;59.528;17.886;2024-01-30T03:03:29;12.68;;;8.20;;
70832;SDS011;71099;59.528;17.886;2024-01-30T03:05:55;17.20;;;8.00;;
70832;SDS011;71099;59.528;17.886;2024-01-30T03:08:20;61.35;;;9.15;;
70832;SDS011;71099;59.528;17.886;2024-01-30T03:10:46;45.78;;;9.63;;
70832;SDS011;71099;59.528;17.886;2024-01-30T03:13:11;17.42;;;9.15;;
70832;SDS011;71099;59.528;17.886;2024-01-30T03:15:37;15.45;;;7.85;;
70832;SDS011;71099;59.528;17.886;2024-01-30T03:18:02;14.90;;;7.60;;
70832;SDS011;71099;59.528;17.886;2024-01-30T03:20:31;21.40;;;6.75;;
70832;SDS011;71099;59.528;17.886;2024-01-30T03:22:57;20.42;;;7.00;;
70832;SDS011;71099;59.528;17.886;2024-01-30T03:25:24;9.52;;;6.13;;
70832;SDS011;71099;59.528;17.886;2024-01-30T03:27:50;14.98;;;7.75;;
70832;SDS011;71099;59.528;17.886;2024-01-30T03:30:16;12.85;;;7.00;;
70832;SDS011;71099;59.528;17.886;2024-01-30T03:32:42;11.60;;;6.47;;
70832;SDS011;71099;59.528;17.886;2024-01-30T03:35:07;11.18;;;6.63;;
70832;SDS011;71099;59.528;17.886;2024-01-30T03:37:33;10.60;;;7.07;;
70832;SDS011;71099;59.528;17.886;2024-01-30T03:39:58;24.98;;;7.43;;
70832;SDS011;71099;59.528;17.886;2024-01-30T03:42:24;42.63;;;7.78;;
70832;SDS011;71099;59.528;17.886;2024-01-30T03:44:50;192.13;;;10.73;;
70832;SDS011;71099;59.528;17.886;2024-01-30T03:47:18;38.97;;;7.18;;
70832;SDS011;71099;59.528;17.886;2024-01-30T03:49:44;64.45;;;7.82;;
70832;SDS011;71099;59.528;17.886;2024-01-30T03:52:10;38.53;;;7.55;;
70832;SDS011;71099;59.528;17.886;2024-01-30T03:54:35;42.15;;;7.28;;
70832;SDS011;71099;59.528;17.886;2024-01-30T03:57:00;54.17;;;8.48;;
70832;SDS011;71099;59.528;17.886;2024-01-30T03:59:26;13.30;;;5.38;;
70832;SDS011;71099;59.528;17.886;2024-01-30T04:01:51;26.30;;;7.15;;
70832;SDS011;71099;59.528;17.886;2024-01-30T04:04:20;10.57;;;5.72;;
70832;SDS011;71099;59.528;17.886;2024-01-30T04:06:45;9.88;;;5.75;;
70832;SDS011;71099;59.528;17.886;2024-01-30T04:09:12;11.30;;;6.05;;
70832;SDS011;71099;59.528;17.886;2024-01-30T04:11:38;12.93;;;5.35;;
70832;SDS011;71099;59.528;17.886;2024-01-30T04:14:04;22.35;;;5.68;;
70832;SDS011;71099;59.528;17.886;2024-01-30T04:16:29;36.53;;;6.50;;
70832;SDS011;71099;59.528;17.886;2024-01-30T04:18:55;33.47;;;6.60;;
70832;SDS011;71099;59.528;17.886;2024-01-30T04:21:21;42.90;;;8.32;;
70832;SDS011;71099;59.528;17.886;2024-01-30T04:23:47;41.92;;;7.25;;
70832;SDS011;71099;59.528;17.886;2024-01-30T04:26:13;22.92;;;5.57;;
70832;SDS011;71099;59.528;17.886;2024-01-30T04:28:41;19.42;;;5.78;;
70832;SDS011;71099;59.528;17.886;2024-01-30T04:31:06;23.27;;;6.15;;
70832;SDS011;71099;59.528;17.886;2024-01-30T04:33:32;48.83;;;7.15;;
70832;SDS011;71099;59.528;17.886;2024-01-30T04:35:57;18.05;;;5.57;;
70832;SDS011;71099;59.528;17.886;2024-01-30T04:38:23;9.55;;;5.93;;
70832;SDS011;71099;59.528;17.886;2024-01-30T04:40:48;10.90;;;5.80;;
70832;SDS011;71099;59.528;17.886;2024-01-30T04:43:14;11.13;;;6.55;;
70832;SDS011;71099;59.528;17.886;2024-01-30T04:45:40;9.05;;;4.88;;
70832;SDS011;71099;59.528;17.886;2024-01-30T04:48:06;10.38;;;6.72;;
70832;SDS011;71099;59.528;17.886;2024-01-30T04:50:32;11.18;;;5.78;;
70832;SDS011;71099;59.528;17.886;2024-01-30T04:52:57;10.82;;;6.50;;
70832;SDS011;71099;59.528;17.886;2024-01-30T04:55:22;13.38;;;6.55;;
70832;SDS011;71099;59.528;17.886;2024-01-30T04:57:48;11.27;;;6.65;;
70832;SDS011;71099;59.528;17.886;2024-01-30T05:00:13;21.25;;;6.72;;
70832;SDS011;71099;59.528;17.886;2024-01-30T05:02:39;7.78;;;5.40;;
70832;SDS011;71099;59.528;17.886;2024-01-30T05:05:04;8.85;;;5.55;;
70832;SDS011;71099;59.528;17.886;2024-01-30T05:07:30;8.35;;;4.10;;
70832;SDS011;71099;59.528;17.886;2024-01-30T05:09:55;9.65;;;5.07;;
70832;SDS011;71099;59.528;17.886;2024-01-30T05:12:21;6.30;;;4.15;;
70832;SDS011;71099;59.528;17.886;2024-01-30T05:14:46;16.83;;;5.32;;
70832;SDS011;71099;59.528;17.886;2024-01-30T05:17:11;25.48;;;6.97;;
70832;SDS011;71099;59.528;17.886;2024-01-30T05:19:38;18.95;;;7.65;;
70832;SDS011;71099;59.528;17.886;2024-01-30T05:22:03;14.18;;;7.15;;
70832;SDS011;71099;59.528;17.886;2024-01-30T05:24:29;33.25;;;8.13;;
70832;SDS011;71099;59.528;17.886;2024-01-30T05:26:54;87.07;;;10.55;;
70832;SDS011;71099;59.528;17.886;2024-01-30T05:29:21;13.05;;;6.63;;
70832;SDS011;71099;59.528;17.886;2024-01-30T05:31:47;10.80;;;6.65;;
70832;SDS011;71099;59.528;17.886;2024-01-30T05:34:12;12.30;;;6.35;;
70832;SDS011;71099;59.528;17.886;2024-01-30T05:36:38;11.82;;;6.93;;
70832;SDS011;71099;59.528;17.886;2024-01-30T05:39:03;12.50;;;6.65;;
70832;SDS011;71099;59.528;17.886;2024-01-30T05:41:29;12.43;;;7.05;;
70832;SDS011;71099;59.528;17.886;2024-01-30T05:43:54;13.07;;;7.68;;
70832;SDS011;71099;59.528;17.886;2024-01-30T05:46:20;12.95;;;8.10;;
70832;SDS011;71099;59.528;17.886;2024-01-30T05:48:48;11.75;;;6.53;;
70832;SDS011;71099;59.528;17.886;2024-01-30T05:51:13;14.63;;;7.75;;
70832;SDS011;71099;59.528;17.886;2024-01-30T05:53:38;10.63;;;7.50;;
70832;SDS011;71099;59.528;17.886;2024-01-30T05:56:04;17.58;;;7.30;;
70832;SDS011;71099;59.528;17.886;2024-01-30T05:58:30;24.30;;;8.70;;
70832;SDS011;71099;59.528;17.886;2024-01-30T06:00:58;25.95;;;8.57;;
70832;SDS011;71099;59.528;17.886;2024-01-30T06:03:23;13.40;;;6.78;;
70832;SDS011;71099;59.528;17.886;2024-01-30T06:05:49;10.60;;;6.32;;
70832;SDS011;71099;59.528;17.886;2024-01-30T06:08:14;11.00;;;6.40;;
70832;SDS011;71099;59.528;17.886;2024-01-30T06:10:39;17.17;;;7.07;;
70832;SDS011;71099;59.528;17.886;2024-01-30T06:13:05;12.93;;;7.18;;
70832;SDS011;71099;59.528;17.886;2024-01-30T06:15:31;12.77;;;8.00;;
70832;SDS011;71099;59.528;17.886;2024-01-30T06:17:57;13.35;;;7.00;;
70832;SDS011;71099;59.528;17.886;2024-01-30T06:20:23;14.20;;;7.78;;
70832;SDS011;71099;59.528;17.886;2024-01-30T06:22:49;12.93;;;6.55;;
70832;SDS011;71099;59.528;17.886;2024-01-30T06:25:14;15.60;;;8.50;;
70832;SDS011;71099;59.528;17.886;2024-01-30T06:27:39;14.55;;;6.97;;
70832;SDS011;71099;59.528;17.886;2024-01-30T06:30:05;12.98;;;7.32;;
70832;SDS011;71099;59.528;17.886;2024-01-30T06:32:35;12.10;;;7.03;;
70832;SDS011;71099;59.528;17.886;2024-01-30T06:35:01;14.80;;;7.07;;
70832;SDS011;71099;59.528;17.886;2024-01-30T06:37:26;13.35;;;7.35;;
70832;SDS011;71099;59.528;17.886;2024-01-30T06:39:52;13.10;;;6.90;;
70832;SDS011;71099;59.528;17.886;2024-01-30T06:42:17;12.95;;;6.65;;
70832;SDS011;71099;59.528;17.886;2024-01-30T06:44:43;8.90;;;5.07;;
70832;SDS011;71099;59.528;17.886;2024-01-30T06:47:09;9.23;;;5.70;;
70832;SDS011;71099;59.528;17.886;2024-01-30T06:49:35;11.27;;;6.15;;
70832;SDS011;71099;59.528;17.886;2024-01-30T06:52:03;11.02;;;6.78;;
70832;SDS011;71099;59.528;17.886;2024-01-30T06:54:31;12.45;;;6.93;;
70832;SDS011;71099;59.528;17.886;2024-01-30T06:56:58;15.43;;;7.00;;
70832;SDS011;71099;59.528;17.886;2024-01-30T06:59:23;17.83;;;7.80;;
70832;SDS011;71099;59.528;17.886;2024-01-30T07:01:49;15.25;;;6.68;;
70832;SDS011;71099;59.528;17.886;2024-01-30T07:04:14;12.18;;;6.00;;
70832;SDS011;71099;59.528;17.886;2024-01-30T07:06:39;17.83;;;6.78;;
70832;SDS011;71099;59.528;17.886;2024-01-30T07:09:05;15.60;;;6.47;;
70832;SDS011;71099;59.528;17.886;2024-01-30T07:11:32;12.60;;;5.63;;
70832;SDS011;71099;59.528;17.886;2024-01-30T07:13:57;11.18;;;5.75;;
70832;SDS011;71099;59.528;17.886;2024-01-30T07:16:23;9.50;;;5.35;;
70832;SDS011;71099;59.528;17.886;2024-01-30T07:18:49;9.48;;;5.38;;
70832;SDS011;71099;59.528;17.886;2024-01-30T07:21:15;14.82;;;6.13;;
70832;SDS011;71099;59.528;17.886;2024-01-30T07:23:40;8.68;;;5.50;;
70832;SDS011;71099;59.528;17.886;2024-01-30T07:26:07;9.43;;;4.75;;
70832;SDS011;71099;59.528;17.886;2024-01-30T07:28:33;16.25;;;5.07;;
70832;SDS011;71099;59.528;17.886;2024-01-30T07:30:59;38.17;;;6.63;;
70832;SDS011;71099;59.528;17.886;2024-01-30T07:33:25;14.57;;;5.18;;
70832;SDS011;71099;59.528;17.886;2024-01-30T07:35:54;9.98;;;5.25;;
70832;SDS011;71099;59.528;17.886;2024-01-30T07:38:19;10.55;;;6.15;;
70832;SDS011;71099;59.528;17.886;2024-01-30T07:40:45;10.82;;;5.68;;
70832;SDS011;71099;59.528;17.886;2024-01-30T07:43:11;10.18;;;6.60;;
70832;SDS011;71099;59.528;17.886;2024-01-30T07:45:36;11.80;;;5.47;;
70832;SDS011;71099;59.528;17.886;2024-01-30T07:48:03;10.32;;;5.20;;
70832;SDS011;71099;59.528;17.886;2024-01-30T07:50:30;16.27;;;6.15;;
70832;SDS011;71099;59.528;17.886;2024-01-30T07:52:56;17.88;;;6.57;;
70832;SDS011;71099;59.528;17.886;2024-01-30T07:55:22;9.85;;;5.70;;
70832;SDS011;71099;59.528;17.886;2024-01-30T07:57:53;9.98;;;5.65;;
70832;SDS011;71099;59.528;17.886;2024-01-30T08:00:20;39.28;;;7.63;;
70832;SDS011;71099;59.528;17.886;2024-01-30T08:02:46;59.88;;;7.78;;
70832;SDS011;71099;59.528;17.886;2024-01-30T08:05:11;12.48;;;5.32;;
70832;SDS011;71099;59.528;17.886;2024-01-30T08:07:37;25.83;;;6.85;;
70832;SDS011;71099;59.528;17.886;2024-01-30T08:10:02;27.17;;;6.20;;
70832;SDS011;71099;59.528;17.886;2024-01-30T08:12:28;22.15;;;6.38;;
70832;SDS011;71099;59.528;17.886;2024-01-30T08:14:54;11.25;;;6.03;;
70832;SDS011;71099;59.528;17.886;2024-01-30T08:17:19;11.70;;;5.50;;
70832;SDS011;71099;59.528;17.886;2024-01-30T08:19:44;14.30;;;7.20;;
70832;SDS011;71099;59.528;17.886;2024-01-30T08:22:10;10.65;;;6.05;;
70832;SDS011;71099;59.528;17.886;2024-01-30T08:24:35;10.80;;;6.07;;
70832;SDS011;71099;59.528;17.886;2024-01-30T08:27:00;11.88;;;6.28;;
70832;SDS011;71099;59.528;17.886;2024-01-30T08:29:27;9.23;;;5.75;;
70832;SDS011;71099;59.528;17.886;2024-01-30T08:31:53;13.82;;;7.50;;
70832;SDS011;71099;59.528;17.886;2024-01-30T08:34:20;13.93;;;6.30;;
70832;SDS011;71099;59.528;17.886;2024-01-30T08:36:46;17.05;;;7.75;;
70832;SDS011;71099;59.528;17.886;2024-01-30T08:39:11;18.67;;;7.80;;
70832;SDS011;71099;59.528;17.886;2024-01-30T08:41:36;16.75;;;7.35;;
70832;SDS011;71099;59.528;17.886;2024-01-30T08:44:02;13.00;;;5.78;;
70832;SDS011;71099;59.528;17.886;2024-01-30T08:46:28;12.75;;;6.60;;
70832;SDS011;71099;59.528;17.886;2024-01-30T08:48:53;19.85;;;6.82;;
70832;SDS011;71099;59.528;17.886;2024-01-30T08:51:19;28.80;;;8.88;;
70832;SDS011;71099;59.528;17.886;2024-01-30T08:53:44;15.88;;;8.65;;
70832;SDS011;71099;59.528;17.886;2024-01-30T08:56:09;39.22;;;9.38;;
70832;SDS011;71099;59.528;17.886;2024-01-30T08:58:35;24.02;;;9.15;;
70832;SDS011;71099;59.528;17.886;2024-01-30T09:01:00;21.20;;;8.75;;
70832;SDS011;71099;59.528;17.886;2024-01-30T09:03:26;36.90;;;9.00;;
70832;SDS011;71099;59.528;17.886;2024-01-30T09:05:52;27.52;;;8.13;;
70832;SDS011;71099;59.528;17.886;2024-01-30T09:08:18;18.52;;;7.97;;
70832;SDS011;71099;59.528;17.886;2024-01-30T09:10:43;23.67;;;9.88;;
70832;SDS011;71099;59.528;17.886;2024-01-30T09:13:09;19.08;;;8.80;;
70832;SDS011;71099;59.528;17.886;2024-01-30T09:15:34;19.30;;;8.48;;
70832;SDS011;71099;59.528;17.886;2024-01-30T09:18:00;18.00;;;8.02;;
70832;SDS011;71099;59.528;17.886;2024-01-30T09:20:26;17.55;;;7.68;;
70832;SDS011;71099;59.528;17.886;2024-01-30T09:22:51;15.57;;;8.05;;
70832;SDS011;71099;59.528;17.886;2024-01-30T09:25:16;20.75;;;9.75;;
70832;SDS011;71099;59.528;17.886;2024-01-30T09:27:43;19.33;;;8.52;;
70832;SDS011;71099;59.528;17.886;2024-01-30T09:30:09;15.73;;;8.52;;
70832;SDS011;71099;59.528;17.886;2024-01-30T09:32:34;20.48;;;8.52;;
70832;SDS011;71099;59.528;17.886;2024-01-30T09:35:00;16.10;;;7.28;;
70832;SDS011;71099;59.528;17.886;2024-01-30T09:37:25;17.63;;;8.50;;
70832;SDS011;71099;59.528;17.886;2024-01-30T09:39:51;15.70;;;7.65;;
70832;SDS011;71099;59.528;17.886;2024-01-30T09:45:04;16.40;;;8.38;;
70832;SDS011;71099;59.528;17.886;2024-01-30T09:47:31;17.58;;;7.43;;
70832;SDS011;71099;59.528;17.886;2024-01-30T09:50:06;16.25;;;9.05;;
70832;SDS011;71099;59.528;17.886;2024-01-30T09:52:31;17.42;;;8.30;;
70832;SDS011;71099;59.528;17.886;2024-01-30T09:54:59;15.40;;;8.18;;
70832;SDS011;71099;59.528;17.886;2024-01-30T09:57:25;17.48;;;8.45;;
70832;SDS011;71099;59.528;17.886;2024-01-30T09:59:51;16.63;;;9.52;;
70832;SDS011;71099;59.528;17.886;2024-01-30T10:02:19;16.02;;;7.80;;
70832;SDS011;71099;59.528;17.886;2024-01-30T10:04:44;20.58;;;9.73;;
70832;SDS011;71099;59.528;17.886;2024-01-30T10:07:12;22.45;;;9.23;;
70832;SDS011;71099;59.528;17.886;2024-01-30T10:09:39;23.63;;;9.73;;
70832;SDS011;71099;59.528;17.886;2024-01-30T10:12:05;19.48;;;9.38;;
70832;SDS011;71099;59.528;17.886;2024-01-30T10:14:31;20.73;;;9.73;;
70832;SDS011;71099;59.528;17.886;2024-01-30T10:16:57;21.30;;;9.98;;
70832;SDS011;71099;59.528;17.886;2024-01-30T10:19:22;23.05;;;9.45;;
70832;SDS011;71099;59.528;17.886;2024-01-30T10:21:48;27.48;;;12.20;;
70832;SDS011;71099;59.528;17.886;2024-01-30T10:24:14;22.67;;;9.73;;
70832;SDS011;71099;59.528;17.886;2024-01-30T10:26:39;20.67;;;9.52;;
70832;SDS011;71099;59.528;17.886;2024-01-30T10:29:05;21.35;;;10.20;;
70832;SDS011;71099;59.528;17.886;2024-01-30T10:31:30;21.88;;;9.75;;
70832;SDS011;71099;59.528;17.886;2024-01-30T10:33:56;20.63;;;10.63;;
70832;SDS011;71099;59.528;17.886;2024-01-30T10:36:21;28.20;;;10.75;;
70832;SDS011;71099;59.528;17.886;2024-01-30T10:38:53;31.38;;;13.43;;
70832;SDS011;71099;59.528;17.886;2024-01-30T10:41:26;26.08;;;11.23;;
70832;SDS011;71099;59.528;17.886;2024-01-30T10:44:02;24.88;;;10.73;;
70832;SDS011;71099;59.528;17.886;2024-01-30T10:46:33;23.50;;;9.70;;
70832;SDS011;71099;59.528;17.886;2024-01-30T10:49:00;24.25;;;11.93;;
70832;SDS011;71099;59.528;17.886;2024-01-30T10:51:27;28.50;;;10.48;;
70832;SDS011;71099;59.528;17.886;2024-01-30T10:53:53;33.38;;;12.05;;
70832;SDS011;71099;59.528;17.886;2024-01-30T10:56:23;31.80;;;11.25;;
70832;SDS011;71099;59.528;17.886;2024-01-30T10:58:50;24.60;;;11.18;;
70832;SDS011;71099;59.528;17.886;2024-01-30T11:01:17;32.50;;;12.48;;
70832;SDS011;71099;59.528;17.886;2024-01-30T11:03:45;34.10;;;14.07;;
70832;SDS011;71099;59.528;17.886;2024-01-30T11:06:11;30.67;;;12.25;;
70832;SDS011;71099;59.528;17.886;2024-01-30T11:08:39;25.58;;;11.70;;
70832;SDS011;71099;59.528;17.886;2024-01-30T11:11:07;60.95;;;13.43;;
70832;SDS011;71099;59.528;17.886;2024-01-30T11:13:34;35.90;;;14.73;;
70832;SDS011;71099;59.528;17.886;2024-01-30T11:16:03;33.90;;;13.38;;
70832;SDS011;71099;59.528;17.886;2024-01-30T11:18:30;32.20;;;14.02;;
70832;SDS011;71099;59.528;17.886;2024-01-30T11:20:57;48.60;;;14.27;;
70832;SDS011;71099;59.528;17.886;2024-01-30T11:23:23;63.67;;;16.77;;
70832;SDS011;71099;59.528;17.886;2024-01-30T11:25:51;43.25;;;14.60;;
70832;SDS011;71099;59.528;17.886;2024-01-30T11:28:17;34.65;;;14.23;;
70832;SDS011;71099;59.528;17.886;2024-01-30T11:30:46;35.42;;;14.55;;
70832;SDS011;71099;59.528;17.886;2024-01-30T11:33:12;37.45;;;13.73;;
70832;SDS011;71099;59.528;17.886;2024-01-30T11:35:42;27.55;;;13.85;;
70832;SDS011;71099;59.528;17.886;2024-01-30T11:38:09;30.23;;;13.82;;
70832;SDS011;71099;59.528;17.886;2024-01-30T11:40:41;38.20;;;15.18;;
70832;SDS011;71099;59.528;17.886;2024-01-30T11:43:07;32.85;;;14.02;;
70832;SDS011;71099;59.528;17.886;2024-01-30T11:45:34;42.55;;;14.75;;
70832;SDS011;71099;59.528;17.886;2024-01-30T11:48:01;42.03;;;15.65;;
70832;SDS011;71099;59.528;17.886;2024-01-30T11:50:31;47.92;;;14.23;;
70832;SDS011;71099;59.528;17.886;2024-01-30T11:52:59;40.30;;;14.23;;
70832;SDS011;71099;59.528;17.886;2024-01-30T11:55:25;36.15;;;14.23;;
70832;SDS011;71099;59.528;17.886;2024-01-30T11:57:50;39.00;;;16.45;;
70832;SDS011;71099;59.528;17.886;2024-01-30T12:00:16;37.13;;;16.45;;
70832;SDS011;71099;59.528;17.886;2024-01-30T12:02:53;37.83;;;15.43;;
70832;SDS011;71099;59.528;17.886;2024-01-30T12:05:22;38.38;;;14.80;;
70832;SDS011;71099;59.528;17.886;2024-01-30T12:07:49;37.63;;;15.10;;
70832;SDS011;71099;59.528;17.886;2024-01-30T12:10:14;37.03;;;13.43;;
70832;SDS011;71099;59.528;17.886;2024-01-30T12:12:41;41.10;;;15.57;;
70832;SDS011;71099;59.528;17.886;2024-01-30T12:15:08;30.15;;;14.15;;
70832;SDS011;71099;59.528;17.886;2024-01-30T12:17:34;41.40;;;15.70;;
70832;SDS011;71099;59.528;17.886;2024-01-30T12:20:09;39.22;;;14.20;;
70832;SDS011;71099;59.528;17.886;2024-01-30T12:22:40;36.95;;;14.48;;
70832;SDS011;71099;59.528;17.886;2024-01-30T12:27:36;32.92;;;15.63;;
70832;SDS011;71099;59.528;17.886;2024-01-30T12:30:09;35.67;;;15.18;;
70832;SDS011;71099;59.528;17.886;2024-01-30T12:32:39;37.33;;;15.57;;
70832;SDS011;71099;59.528;17.886;2024-01-30T12:35:12;40.90;;;17.98;;
70832;SDS011;71099;59.528;17.886;2024-01-30T12:37:39;37.05;;;14.57;;
70832;SDS011;71099;59.528;17.886;2024-01-30T12:40:06;35.45;;;15.00;;
70832;SDS011;71099;59.528;17.886;2024-01-30T12:42:33;38.08;;;14.38;;
70832;SDS011;71099;59.528;17.886;2024-01-30T12:44:58;34.13;;;16.70;;
70832;SDS011;71099;59.528;17.886;2024-01-30T12:47:24;39.42;;;15.13;;
70832;SDS011;71099;59.528;17.886;2024-01-30T12:49:50;38.10;;;14.00;;
70832;SDS011;71099;59.528;17.886;2024-01-30T12:52:19;39.97;;;17.15;;
70832;SDS011;71099;59.528;17.886;2024-01-30T12:54:45;33.33;;;15.98;;
70832;SDS011;71099;59.528;17.886;2024-01-30T12:57:11;37.85;;;14.65;;
70832;SDS011;71099;59.528;17.886;2024-01-30T12:59:36;40.38;;;15.68;;
70832;SDS011;71099;59.528;17.886;2024-01-30T13:02:02;36.75;;;16.77;;
70832;SDS011;71099;59.528;17.886;2024-01-30T13:04:28;42.10;;;17.30;;
70832;SDS011;71099;59.528;17.886;2024-01-30T13:06:54;31.13;;;14.93;;
70832;SDS011;71099;59.528;17.886;2024-01-30T13:09:19;36.95;;;14.90;;
70832;SDS011;71099;59.528;17.886;2024-01-30T13:11:45;37.53;;;15.02;;
70832;SDS011;71099;59.528;17.886;2024-01-30T13:16:44;38.97;;;16.10;;
70832;SDS011;71099;59.528;17.886;2024-01-30T13:19:10;31.90;;;13.98;;
70832;SDS011;71099;59.528;17.886;2024-01-30T13:21:35;30.67;;;14.27;;
70832;SDS011;71099;59.528;17.886;2024-01-30T13:24:01;32.35;;;14.45;;
70832;SDS011;71099;59.528;17.886;2024-01-30T13:26:26;33.47;;;13.73;;
70832;SDS011;71099;59.528;17.886;2024-01-30T13:28:52;37.17;;;15.25;;
70832;SDS011;71099;59.528;17.886;2024-01-30T13:31:18;34.25;;;13.98;;
70832;SDS011;71099;59.528;17.886;2024-01-30T13:33:44;38.72;;;15.30;;
70832;SDS011;71099;59.528;17.886;2024-01-30T13:36:11;33.20;;;15.05;;
70832;SDS011;71099;59.528;17.886;2024-01-30T13:38:37;31.00;;;13.70;;
70832;SDS011;71099;59.528;17.886;2024-01-30T13:41:02;36.28;;;17.25;;
70832;SDS011;71099;59.528;17.886;2024-01-30T13:43:28;31.95;;;15.52;;
70832;SDS011;71099;59.528;17.886;2024-01-30T13:45:54;31.70;;;15.38;;
70832;SDS011;71099;59.528;17.886;2024-01-30T13:48:20;33.10;;;14.13;;
70832;SDS011;71099;59.528;17.886;2024-01-30T13:50:45;36.22;;;15.68;;
70832;SDS011;71099;59.528;17.886;2024-01-30T13:53:11;31.48;;;13.98;;
70832;SDS011;71099;59.528;17.886;2024-01-30T13:55:37;35.50;;;16.33;;
70832;SDS011;71099;59.528;17.886;2024-01-30T13:58:03;30.40;;;14.52;;
70832;SDS011;71099;59.528;17.886;2024-01-30T14:00:28;31.45;;;15.52;;
70832;SDS011;71099;59.528;17.886;2024-01-30T14:02:54;38.03;;;15.73;;
70832;SDS011;71099;59.528;17.886;2024-01-30T14:05:20;31.38;;;14.23;;
70832;SDS011;71099;59.528;17.886;2024-01-30T14:07:46;28.27;;;14.75;;
70832;SDS011;71099;59.528;17.886;2024-01-30T14:10:12;39.78;;;15.05;;
70832;SDS011;71099;59.528;17.886;2024-01-30T14:12:37;36.92;;;14.68;;
70832;SDS011;71099;59.528;17.886;2024-01-30T14:15:03;31.23;;;15.15;;
70832;SDS011;71099;59.528;17.886;2024-01-30T14:17:29;34.17;;;14.05;;
70832;SDS011;71099;59.528;17.886;2024-01-30T14:19:54;35.45;;;14.98;;